sensor_id;sensor_type;location;lat;lon;timestamp;pressure;altitude;pressure_sealevel;temperature;humidity
45129;BME280;35512;56.312;101.728;2023-03-18T00:01:37;96373.63;;;-2.79;35.49
45129;BME280;35512;56.312;101.728;2023-03-18T00:04:07;96363.06;;;-2.79;35.77
45129;BME280;35512;56.312;101.728;2023-03-18T00:06:36;96376.38;;;-2.60;35.32
45129;BME280;35512;56.312;101.728;2023-03-18T00:09:05;96379.91;;;-2.46;35.26
45129;BME280;35512;56.312;101.728;2023-03-18T00:11:34;96374.22;;;-2.29;35.67
45129;BME280;35512;56.312;101.728;2023-03-18T00:14:04;96373.00;;;-2.12;35.18
45129;BME280;35512;56.312;101.728;2023-03-18T00:16:36;96382.00;;;-1.89;35.16
45129;BME280;35512;56.312;101.728;2023-03-18T00:19:11;96384.97;;;-1.72;34.87
45129;BME280;35512;56.312;101.728;2023-03-18T00:21:53;96381.53;;;-1.53;35.07
45129;BME280;35512;56.312;101.728;2023-03-18T00:24:23;96383.22;;;-1.38;35.18
45129;BME280;35512;56.312;101.728;2023-03-18T00:26:55;96386.72;;;-1.24;34.79
45129;BME280;35512;56.312;101.728;2023-03-18T00:29:24;96387.56;;;-1.09;34.81
45129;BME280;35512;56.312;101.728;2023-03-18T00:31:53;96383.91;;;-0.94;34.73
45129;BME280;35512;56.312;101.728;2023-03-18T00:34:22;96388.41;;;-0.76;34.75
45129;BME280;35512;56.312;101.728;2023-03-18T00:36:51;96385.13;;;-0.54;34.97
45129;BME280;35512;56.312;101.728;2023-03-18T00:39:24;96378.50;;;-0.23;35.24
45129;BME280;35512;56.312;101.728;2023-03-18T00:41:56;96367.72;;;0.01;34.85
45129;BME280;35512;56.312;101.728;2023-03-18T00:44:25;96377.03;;;0.40;34.81
45129;BME280;35512;56.312;101.728;2023-03-18T00:46:54;96379.78;;;0.63;34.80
45129;BME280;35512;56.312;101.728;2023-03-18T00:49:24;96376.47;;;0.80;34.45
45129;BME280;35512;56.312;101.728;2023-03-18T00:51:53;96374.16;;;1.01;34.33
45129;BME280;35512;56.312;101.728;2023-03-18T00:54:22;96362.84;;;1.41;34.17
45129;BME280;35512;56.312;101.728;2023-03-18T00:56:52;96340.38;;;1.96;33.79
45129;BME280;35512;56.312;101.728;2023-03-18T00:59:21;96364.41;;;2.97;33.24
45129;BME280;35512;56.312;101.728;2023-03-18T01:01:51;96362.53;;;3.89;32.68
45129;BME280;35512;56.312;101.728;2023-03-18T01:04:21;96353.34;;;4.88;32.89
45129;BME280;35512;56.312;101.728;2023-03-18T01:06:51;96354.13;;;5.56;32.51
45129;BME280;35512;56.312;101.728;2023-03-18T01:09:21;96353.25;;;6.10;32.32
45129;BME280;35512;56.312;101.728;2023-03-18T01:11:51;96342.28;;;6.52;32.10
45129;BME280;35512;56.312;101.728;2023-03-18T01:14:20;96348.97;;;7.11;31.93
45129;BME280;35512;56.312;101.728;2023-03-18T01:16:49;96348.34;;;7.75;31.60
45129;BME280;35512;56.312;101.728;2023-03-18T01:19:18;96352.25;;;8.41;30.89
45129;BME280;35512;56.312;101.728;2023-03-18T01:21:48;96334.63;;;9.15;30.84
45129;BME280;35512;56.312;101.728;2023-03-18T01:24:17;96336.25;;;9.86;30.35
45129;BME280;35512;56.312;101.728;2023-03-18T01:26:47;96339.31;;;10.07;29.88
45129;BME280;35512;56.312;101.728;2023-03-18T01:29:15;96332.50;;;10.13;29.91
45129;BME280;35512;56.312;101.728;2023-03-18T01:31:45;96327.78;;;10.57;29.54
45129;BME280;35512;56.312;101.728;2023-03-18T01:34:17;96319.13;;;11.05;29.56
45129;BME280;35512;56.312;101.728;2023-03-18T01:36:50;96317.69;;;11.90;28.90
45129;BME280;35512;56.312;101.728;2023-03-18T01:39:21;96335.34;;;12.70;28.77
45129;BME280;35512;56.312;101.728;2023-03-18T01:41:51;96332.88;;;13.20;28.21
45129;BME280;35512;56.312;101.728;2023-03-18T01:44:38;96336.13;;;13.62;27.82
45129;BME280;35512;56.312;101.728;2023-03-18T01:47:09;96334.22;;;13.77;27.70
45129;BME280;35512;56.312;101.728;2023-03-18T01:49:45;96338.50;;;13.96;27.60
45129;BME280;35512;56.312;101.728;2023-03-18T01:52:19;96337.38;;;14.33;27.40
45129;BME280;35512;56.312;101.728;2023-03-18T01:55:00;96337.72;;;14.75;26.69
45129;BME280;35512;56.312;101.728;2023-03-18T01:57:31;96341.94;;;15.04;26.93
45129;BME280;35512;56.312;101.728;2023-03-18T02:00:04;96333.69;;;15.23;26.52
45129;BME280;35512;56.312;101.728;2023-03-18T02:02:42;96340.25;;;15.36;26.42
45129;BME280;35512;56.312;101.728;2023-03-18T02:05:16;96317.97;;;15.59;26.87
45129;BME280;35512;56.312;101.728;2023-03-18T02:07:46;96342.09;;;16.20;26.00
45129;BME280;35512;56.312;101.728;2023-03-18T02:10:26;96335.66;;;16.45;26.29
45129;BME280;35512;56.312;101.728;2023-03-18T02:13:03;96337.41;;;17.08;25.85
45129;BME280;35512;56.312;101.728;2023-03-18T02:15:56;96335.13;;;17.68;25.47
45129;BME280;35512;56.312;101.728;2023-03-18T02:18:31;96340.81;;;18.32;24.68
45129;BME280;35512;56.312;101.728;2023-03-18T02:24:08;96330.47;;;19.11;24.36
45129;BME280;35512;56.312;101.728;2023-03-18T02:26:53;96329.78;;;19.47;24.21
45129;BME280;35512;56.312;101.728;2023-03-18T02:29:32;96322.09;;;19.95;23.45
45129;BME280;35512;56.312;101.728;2023-03-18T02:32:13;96318.50;;;20.15;23.15
45129;BME280;35512;56.312;101.728;2023-03-18T02:34:43;96313.13;;;20.27;23.19
45129;BME280;35512;56.312;101.728;2023-03-18T02:37:13;96318.44;;;20.64;23.02
45129;BME280;35512;56.312;101.728;2023-03-18T02:39:43;96304.75;;;20.81;22.82
45129;BME280;35512;56.312;101.728;2023-03-18T02:42:13;96319.25;;;21.23;22.48
45129;BME280;35512;56.312;101.728;2023-03-18T02:44:49;96321.34;;;21.32;22.23
45129;BME280;35512;56.312;101.728;2023-03-18T02:47:40;96323.88;;;21.26;21.68
45129;BME280;35512;56.312;101.728;2023-03-18T02:50:13;96324.25;;;21.41;21.66
45129;BME280;35512;56.312;101.728;2023-03-18T02:52:42;96321.72;;;21.47;21.32
45129;BME280;35512;56.312;101.728;2023-03-18T02:55:13;96320.81;;;21.67;21.23
45129;BME280;35512;56.312;101.728;2023-03-18T02:57:42;96323.78;;;21.98;21.44
45129;BME280;35512;56.312;101.728;2023-03-18T03:00:11;96314.84;;;22.20;20.94
45129;BME280;35512;56.312;101.728;2023-03-18T03:02:41;96312.94;;;22.55;20.76
45129;BME280;35512;56.312;101.728;2023-03-18T03:05:10;96305.25;;;22.85;20.54
45129;BME280;35512;56.312;101.728;2023-03-18T03:07:40;96311.59;;;22.95;20.13
45129;BME280;35512;56.312;101.728;2023-03-18T03:10:11;96303.50;;;23.01;20.37
45129;BME280;35512;56.312;101.728;2023-03-18T03:12:42;96294.06;;;23.24;20.16
45129;BME280;35512;56.312;101.728;2023-03-18T03:15:11;96301.72;;;23.51;20.04
45129;BME280;35512;56.312;101.728;2023-03-18T03:17:46;96295.59;;;23.88;19.83
45129;BME280;35512;56.312;101.728;2023-03-18T03:20:17;96290.81;;;24.20;19.54
45129;BME280;35512;56.312;101.728;2023-03-18T03:22:47;96278.38;;;24.15;19.35
45129;BME280;35512;56.312;101.728;2023-03-18T03:25:17;96261.97;;;24.11;18.99
45129;BME280;35512;56.312;101.728;2023-03-18T03:27:47;96277.28;;;24.03;18.51
45129;BME280;35512;56.312;101.728;2023-03-18T03:30:17;96275.34;;;23.82;18.59
45129;BME280;35512;56.312;101.728;2023-03-18T03:32:47;96274.44;;;23.85;18.43
45129;BME280;35512;56.312;101.728;2023-03-18T03:35:18;96274.88;;;23.74;18.35
45129;BME280;35512;56.312;101.728;2023-03-18T03:37:47;96269.34;;;23.74;18.28
45129;BME280;35512;56.312;101.728;2023-03-18T03:40:17;96272.75;;;23.78;18.40
45129;BME280;35512;56.312;101.728;2023-03-18T03:42:50;96270.28;;;24.30;18.36
45129;BME280;35512;56.312;101.728;2023-03-18T03:45:19;96264.81;;;24.67;18.06
45129;BME280;35512;56.312;101.728;2023-03-18T03:47:49;96268.03;;;24.93;18.04
45129;BME280;35512;56.312;101.728;2023-03-18T03:50:19;96243.03;;;24.97;17.64
45129;BME280;35512;56.312;101.728;2023-03-18T03:52:49;96242.41;;;24.74;17.57
45129;BME280;35512;56.312;101.728;2023-03-18T03:55:19;96260.03;;;24.49;17.72
45129;BME280;35512;56.312;101.728;2023-03-18T03:57:49;96244.69;;;24.48;18.10
45129;BME280;35512;56.312;101.728;2023-03-18T04:00:22;96256.53;;;24.76;17.60
45129;BME280;35512;56.312;101.728;2023-03-18T04:02:51;96256.81;;;25.06;17.46
45129;BME280;35512;56.312;101.728;2023-03-18T04:05:23;96246.56;;;25.50;17.53
45129;BME280;35512;56.312;101.728;2023-03-18T04:07:53;96244.88;;;25.95;17.08
45129;BME280;35512;56.312;101.728;2023-03-18T04:10:33;96233.09;;;26.34;16.96
45129;BME280;35512;56.312;101.728;2023-03-18T04:13:06;96221.34;;;26.63;16.78
45129;BME280;35512;56.312;101.728;2023-03-18T04:15:37;96211.75;;;27.18;16.95
45129;BME280;35512;56.312;101.728;2023-03-18T04:18:09;96230.41;;;27.47;16.44
45129;BME280;35512;56.312;101.728;2023-03-18T04:20:39;96220.56;;;27.46;16.35
45129;BME280;35512;56.312;101.728;2023-03-18T04:23:27;96216.94;;;27.76;16.57
45129;BME280;35512;56.312;101.728;2023-03-18T04:25:56;96214.09;;;28.06;16.14
45129;BME280;35512;56.312;101.728;2023-03-18T04:28:25;96212.91;;;28.33;16.17
45129;BME280;35512;56.312;101.728;2023-03-18T04:30:54;96206.03;;;28.49;15.97
45129;BME280;35512;56.312;101.728;2023-03-18T04:33:23;96196.78;;;28.78;15.85
45129;BME280;35512;56.312;101.728;2023-03-18T04:35:52;96194.53;;;29.09;15.84
45129;BME280;35512;56.312;101.728;2023-03-18T04:38:21;96197.19;;;29.24;15.59
45129;BME280;35512;56.312;101.728;2023-03-18T04:40:52;96189.25;;;29.11;15.43
45129;BME280;35512;56.312;101.728;2023-03-18T04:43:22;96185.63;;;28.99;15.64
45129;BME280;35512;56.312;101.728;2023-03-18T04:45:51;96173.72;;;28.98;15.58
45129;BME280;35512;56.312;101.728;2023-03-18T04:48:20;96179.09;;;29.08;15.80
45129;BME280;35512;56.312;101.728;2023-03-18T04:50:50;96154.41;;;29.15;15.40
45129;BME280;35512;56.312;101.728;2023-03-18T04:53:24;96170.94;;;29.25;14.75
45129;BME280;35512;56.312;101.728;2023-03-18T04:55:53;96170.09;;;29.18;14.51
45129;BME280;35512;56.312;101.728;2023-03-18T04:58:29;96140.69;;;28.54;14.28
45129;BME280;35512;56.312;101.728;2023-03-18T05:01:12;96157.56;;;27.67;14.25
45129;BME280;35512;56.312;101.728;2023-03-18T05:03:42;96147.19;;;26.82;14.42
45129;BME280;35512;56.312;101.728;2023-03-18T05:06:20;96124.69;;;26.35;14.64
45129;BME280;35512;56.312;101.728;2023-03-18T05:09:05;96138.41;;;26.98;14.37
45129;BME280;35512;56.312;101.728;2023-03-18T05:11:35;96128.59;;;27.69;14.20
45129;BME280;35512;56.312;101.728;2023-03-18T05:14:13;96127.34;;;27.90;14.09
45129;BME280;35512;56.312;101.728;2023-03-18T05:16:46;96114.25;;;27.91;13.86
45129;BME280;35512;56.312;101.728;2023-03-18T05:19:17;96118.13;;;27.99;14.17
45129;BME280;35512;56.312;101.728;2023-03-18T05:21:55;96089.75;;;28.10;14.16
45129;BME280;35512;56.312;101.728;2023-03-18T05:24:25;96115.63;;;28.22;13.52
45129;BME280;35512;56.312;101.728;2023-03-18T05:26:54;96101.72;;;27.75;13.65
45129;BME280;35512;56.312;101.728;2023-03-18T05:29:31;96108.63;;;28.06;14.07
45129;BME280;35512;56.312;101.728;2023-03-18T05:32:14;96095.53;;;28.06;13.61
45129;BME280;35512;56.312;101.728;2023-03-18T05:34:47;96089.75;;;27.89;13.75
45129;BME280;35512;56.312;101.728;2023-03-18T05:37:17;96080.69;;;27.68;13.80
45129;BME280;35512;56.312;101.728;2023-03-18T05:39:56;96086.91;;;27.83;13.98
45129;BME280;35512;56.312;101.728;2023-03-18T05:42:26;96078.44;;;28.13;13.71
45129;BME280;35512;56.312;101.728;2023-03-18T05:44:55;96081.38;;;27.83;13.44
45129;BME280;35512;56.312;101.728;2023-03-18T05:47:25;96075.84;;;27.27;13.32
45129;BME280;35512;56.312;101.728;2023-03-18T05:50:12;96071.91;;;26.69;13.63
45129;BME280;35512;56.312;101.728;2023-03-18T05:52:43;96062.25;;;26.49;13.98
45129;BME280;35512;56.312;101.728;2023-03-18T05:55:18;96051.09;;;26.73;13.95
45129;BME280;35512;56.312;101.728;2023-03-18T05:57:48;96048.78;;;27.37;14.09
45129;BME280;35512;56.312;101.728;2023-03-18T06:00:18;96041.41;;;27.96;13.77
45129;BME280;35512;56.312;101.728;2023-03-18T06:02:50;96020.69;;;27.91;13.83
45129;BME280;35512;56.312;101.728;2023-03-18T06:05:22;96037.25;;;27.65;13.49
45129;BME280;35512;56.312;101.728;2023-03-18T06:07:52;96036.03;;;26.74;13.63
45129;BME280;35512;56.312;101.728;2023-03-18T06:10:22;96033.53;;;26.17;13.71
45129;BME280;35512;56.312;101.728;2023-03-18T06:12:53;96026.78;;;25.78;14.14
45129;BME280;35512;56.312;101.728;2023-03-18T06:15:26;96034.28;;;26.02;14.13
45129;BME280;35512;56.312;101.728;2023-03-18T06:17:56;96023.63;;;26.10;13.88
45129;BME280;35512;56.312;101.728;2023-03-18T06:20:27;96012.66;;;26.30;14.22
45129;BME280;35512;56.312;101.728;2023-03-18T06:22:58;96018.41;;;26.92;13.98
45129;BME280;35512;56.312;101.728;2023-03-18T06:25:27;96010.16;;;26.98;13.82
45129;BME280;35512;56.312;101.728;2023-03-18T06:27:57;95997.25;;;26.74;13.63
45129;BME280;35512;56.312;101.728;2023-03-18T06:30:28;95997.31;;;27.15;14.02
45129;BME280;35512;56.312;101.728;2023-03-18T06:32:58;95978.22;;;27.38;13.62
45129;BME280;35512;56.312;101.728;2023-03-18T06:35:27;95993.69;;;27.45;13.71
45129;BME280;35512;56.312;101.728;2023-03-18T06:37:56;95980.75;;;27.83;13.79
45129;BME280;35512;56.312;101.728;2023-03-18T06:40:26;95975.91;;;28.04;13.24
45129;BME280;35512;56.312;101.728;2023-03-18T06:42:57;95973.88;;;27.78;13.63
45129;BME280;35512;56.312;101.728;2023-03-18T06:45:36;95962.56;;;27.56;13.57
45129;BME280;35512;56.312;101.728;2023-03-18T06:48:08;95959.91;;;27.26;13.60
45129;BME280;35512;56.312;101.728;2023-03-18T06:50:41;95954.63;;;26.87;13.74
45129;BME280;35512;56.312;101.728;2023-03-18T06:53:22;95937.44;;;26.68;13.64
45129;BME280;35512;56.312;101.728;2023-03-18T06:55:53;95939.47;;;26.82;13.74
45129;BME280;35512;56.312;101.728;2023-03-18T06:58:28;95945.50;;;27.22;13.66
45129;BME280;35512;56.312;101.728;2023-03-18T07:01:07;95927.78;;;26.42;13.34
45129;BME280;35512;56.312;101.728;2023-03-18T07:03:42;95927.59;;;25.71;13.79
45129;BME280;35512;56.312;101.728;2023-03-18T07:06:14;95911.31;;;25.10;13.89
45129;BME280;35512;56.312;101.728;2023-03-18T07:08:44;95925.50;;;24.78;14.13
45129;BME280;35512;56.312;101.728;2023-03-18T07:11:14;95915.72;;;24.35;13.99
45129;BME280;35512;56.312;101.728;2023-03-18T07:13:45;95915.63;;;24.20;14.54
45129;BME280;35512;56.312;101.728;2023-03-18T07:16:21;95918.53;;;24.68;14.31
45129;BME280;35512;56.312;101.728;2023-03-18T07:18:51;95899.31;;;24.98;14.46
45129;BME280;35512;56.312;101.728;2023-03-18T07:21:21;95906.50;;;25.44;14.10
45129;BME280;35512;56.312;101.728;2023-03-18T07:23:51;95895.81;;;25.37;13.91
45129;BME280;35512;56.312;101.728;2023-03-18T07:26:24;95890.06;;;25.01;13.79
45129;BME280;35512;56.312;101.728;2023-03-18T07:28:53;95888.31;;;24.31;14.21
45129;BME280;35512;56.312;101.728;2023-03-18T07:31:23;95876.16;;;24.04;14.64
45129;BME280;35512;56.312;101.728;2023-03-18T07:33:53;95872.94;;;24.39;14.57
45129;BME280;35512;56.312;101.728;2023-03-18T07:36:22;95874.22;;;24.87;14.40
45129;BME280;35512;56.312;101.728;2023-03-18T07:38:51;95873.19;;;24.51;14.19
45129;BME280;35512;56.312;101.728;2023-03-18T07:41:20;95861.09;;;24.14;14.28
45129;BME280;35512;56.312;101.728;2023-03-18T07:43:49;95864.00;;;23.59;14.60
45129;BME280;35512;56.312;101.728;2023-03-18T07:46:18;95868.19;;;23.36;15.04
45129;BME280;35512;56.312;101.728;2023-03-18T07:48:47;95869.34;;;23.62;14.93
45129;BME280;35512;56.312;101.728;2023-03-18T07:51:17;95873.03;;;23.69;14.71
45129;BME280;35512;56.312;101.728;2023-03-18T07:53:46;95864.97;;;23.37;14.82
45129;BME280;35512;56.312;101.728;2023-03-18T07:56:15;95860.06;;;23.23;14.81
45129;BME280;35512;56.312;101.728;2023-03-18T07:58:44;95842.66;;;23.17;14.84
45129;BME280;35512;56.312;101.728;2023-03-18T08:01:14;95857.13;;;22.99;14.99
45129;BME280;35512;56.312;101.728;2023-03-18T08:03:46;95850.06;;;22.60;15.00
45129;BME280;35512;56.312;101.728;2023-03-18T08:06:16;95830.09;;;22.28;15.06
45129;BME280;35512;56.312;101.728;2023-03-18T08:08:48;95840.31;;;22.19;15.34
45129;BME280;35512;56.312;101.728;2023-03-18T08:11:21;95828.19;;;22.48;15.20
45129;BME280;35512;56.312;101.728;2023-03-18T08:13:53;95828.06;;;22.51;15.07
45129;BME280;35512;56.312;101.728;2023-03-18T08:16:26;95826.06;;;22.11;15.29
45129;BME280;35512;56.312;101.728;2023-03-18T08:19:00;95825.63;;;22.12;15.46
45129;BME280;35512;56.312;101.728;2023-03-18T08:21:33;95822.56;;;22.51;15.47
45129;BME280;35512;56.312;101.728;2023-03-18T08:24:06;95820.09;;;22.53;15.46
45129;BME280;35512;56.312;101.728;2023-03-18T08:26:39;95815.13;;;22.29;15.31
45129;BME280;35512;56.312;101.728;2023-03-18T08:29:11;95811.13;;;22.12;15.74
45129;BME280;35512;56.312;101.728;2023-03-18T08:31:43;95810.41;;;21.80;15.92
45129;BME280;35512;56.312;101.728;2023-03-18T08:34:16;95810.19;;;21.65;15.67
45129;BME280;35512;56.312;101.728;2023-03-18T08:36:49;95788.88;;;21.25;15.91
45129;BME280;35512;56.312;101.728;2023-03-18T08:39:22;95775.78;;;20.50;16.27
45129;BME280;35512;56.312;101.728;2023-03-18T08:41:54;95782.91;;;19.99;16.27
45129;BME280;35512;56.312;101.728;2023-03-18T08:44:27;95782.63;;;19.29;16.48
45129;BME280;35512;56.312;101.728;2023-03-18T08:47:00;95755.09;;;18.48;16.84
45129;BME280;35512;56.312;101.728;2023-03-18T08:49:32;95772.66;;;17.85;17.12
45129;BME280;35512;56.312;101.728;2023-03-18T08:52:01;95768.38;;;16.70;17.74
45129;BME280;35512;56.312;101.728;2023-03-18T08:54:32;95764.09;;;15.20;18.83
45129;BME280;35512;56.312;101.728;2023-03-18T08:57:00;95751.41;;;13.95;19.89
45129;BME280;35512;56.312;101.728;2023-03-18T08:59:31;95763.53;;;13.16;20.62
45129;BME280;35512;56.312;101.728;2023-03-18T09:02:02;95758.31;;;12.62;21.41
45129;BME280;35512;56.312;101.728;2023-03-18T09:04:34;95758.06;;;12.03;21.86
45129;BME280;35512;56.312;101.728;2023-03-18T09:07:05;95743.69;;;11.59;22.13
45129;BME280;35512;56.312;101.728;2023-03-18T09:09:34;95724.75;;;11.26;22.13
45129;BME280;35512;56.312;101.728;2023-03-18T09:12:11;95730.91;;;11.16;22.54
45129;BME280;35512;56.312;101.728;2023-03-18T09:14:42;95748.25;;;11.08;22.95
45129;BME280;35512;56.312;101.728;2023-03-18T09:17:11;95741.25;;;10.96;22.81
45129;BME280;35512;56.312;101.728;2023-03-18T09:19:42;95733.13;;;10.89;23.05
45129;BME280;35512;56.312;101.728;2023-03-18T09:22:10;95730.75;;;10.73;23.42
45129;BME280;35512;56.312;101.728;2023-03-18T09:24:39;95728.34;;;10.49;23.42
45129;BME280;35512;56.312;101.728;2023-03-18T09:27:09;95716.69;;;10.35;23.70
45129;BME280;35512;56.312;101.728;2023-03-18T09:29:38;95720.94;;;10.36;23.76
45129;BME280;35512;56.312;101.728;2023-03-18T09:32:07;95711.25;;;10.27;24.16
45129;BME280;35512;56.312;101.728;2023-03-18T09:34:36;95709.97;;;10.07;24.41
45129;BME280;35512;56.312;101.728;2023-03-18T09:37:05;95715.31;;;10.00;24.56
45129;BME280;35512;56.312;101.728;2023-03-18T09:39:33;95708.72;;;9.90;24.80
45129;BME280;35512;56.312;101.728;2023-03-18T09:43:08;95704.03;;;9.87;24.71
45129;BME280;35512;56.312;101.728;2023-03-18T09:45:19;95680.00;;;9.60;24.72
45129;BME280;35512;56.312;101.728;2023-03-18T09:50:45;95705.47;;;9.70;25.21
45129;BME280;35512;56.312;101.728;2023-03-18T09:54:01;95699.25;;;9.62;25.42
45129;BME280;35512;56.312;101.728;2023-03-18T09:56:33;95676.50;;;9.56;25.91
45129;BME280;35512;56.312;101.728;2023-03-18T09:59:14;95683.69;;;9.41;26.06
45129;BME280;35512;56.312;101.728;2023-03-18T10:01:49;95681.66;;;9.30;25.95
45129;BME280;35512;56.312;101.728;2023-03-18T10:04:27;95677.63;;;9.10;26.23
45129;BME280;35512;56.312;101.728;2023-03-18T10:07:13;95686.16;;;9.16;26.28
45129;BME280;35512;56.312;101.728;2023-03-18T10:09:49;95694.22;;;9.16;26.70
45129;BME280;35512;56.312;101.728;2023-03-18T10:12:34;95682.66;;;9.11;26.42
45129;BME280;35512;56.312;101.728;2023-03-18T10:15:18;95669.50;;;9.06;26.32
45129;BME280;35512;56.312;101.728;2023-03-18T10:18:01;95680.34;;;9.10;26.21
45129;BME280;35512;56.312;101.728;2023-03-18T10:23:46;95672.19;;;9.03;26.15
45129;BME280;35512;56.312;101.728;2023-03-18T10:26:42;95668.66;;;8.95;26.33
45129;BME280;35512;56.312;101.728;2023-03-18T10:32:16;95663.47;;;8.75;26.81
45129;BME280;35512;56.312;101.728;2023-03-18T10:40:24;95653.53;;;8.49;26.97
45129;BME280;35512;56.312;101.728;2023-03-18T10:42:53;95637.22;;;8.35;27.10
45129;BME280;35512;56.312;101.728;2023-03-18T10:45:26;95658.00;;;8.38;26.96
45129;BME280;35512;56.312;101.728;2023-03-18T10:48:03;95662.88;;;8.28;26.98
45129;BME280;35512;56.312;101.728;2023-03-18T10:50:42;95661.25;;;8.20;27.49
45129;BME280;35512;56.312;101.728;2023-03-18T10:58:26;95644.44;;;7.97;27.98
45129;BME280;35512;56.312;101.728;2023-03-18T11:00:57;95638.38;;;7.76;28.09
45129;BME280;35512;56.312;101.728;2023-03-18T11:03:30;95649.88;;;7.73;27.74
45129;BME280;35512;56.312;101.728;2023-03-18T11:06:03;95635.34;;;7.51;27.78
45129;BME280;35512;56.312;101.728;2023-03-18T11:08:38;95649.97;;;7.54;28.16
45129;BME280;35512;56.312;101.728;2023-03-18T11:11:20;95654.00;;;7.40;27.99
45129;BME280;35512;56.312;101.728;2023-03-18T11:13:51;95660.41;;;7.32;28.08
45129;BME280;35512;56.312;101.728;2023-03-18T11:18:51;95642.78;;;7.11;28.25
45129;BME280;35512;56.312;101.728;2023-03-18T11:21:21;95644.22;;;7.05;28.75
45129;BME280;35512;56.312;101.728;2023-03-18T11:23:58;95649.03;;;6.96;28.78
45129;BME280;35512;56.312;101.728;2023-03-18T11:26:44;95635.22;;;6.94;29.21
45129;BME280;35512;56.312;101.728;2023-03-18T11:29:16;95642.38;;;6.86;28.63
45129;BME280;35512;56.312;101.728;2023-03-18T11:31:55;95639.91;;;6.77;28.80
45129;BME280;35512;56.312;101.728;2023-03-18T11:34:30;95641.34;;;6.71;29.55
45129;BME280;35512;56.312;101.728;2023-03-18T11:37:03;95637.34;;;6.62;29.48
45129;BME280;35512;56.312;101.728;2023-03-18T11:39:38;95637.34;;;6.62;29.10
45129;BME280;35512;56.312;101.728;2023-03-18T11:42:18;95635.66;;;6.53;29.86
45129;BME280;35512;56.312;101.728;2023-03-18T11:44:53;95639.72;;;6.47;29.09
45129;BME280;35512;56.312;101.728;2023-03-18T11:47:28;95630.44;;;6.41;29.38
45129;BME280;35512;56.312;101.728;2023-03-18T11:49:58;95637.19;;;6.35;30.13
45129;BME280;35512;56.312;101.728;2023-03-18T11:52:45;95629.44;;;6.30;29.69
45129;BME280;35512;56.312;101.728;2023-03-18T12:01:29;95604.16;;;5.91;29.96
45129;BME280;35512;56.312;101.728;2023-03-18T12:12:42;95630.41;;;5.66;29.54
45129;BME280;35512;56.312;101.728;2023-03-18T12:20:39;95621.72;;;5.53;30.42
45129;BME280;35512;56.312;101.728;2023-03-18T12:26:17;95620.34;;;5.44;30.33
45129;BME280;35512;56.312;101.728;2023-03-18T12:42:43;95606.41;;;5.02;30.76
45129;BME280;35512;56.312;101.728;2023-03-18T12:45:19;95599.41;;;4.98;30.73
45129;BME280;35512;56.312;101.728;2023-03-18T12:48:02;95604.31;;;4.96;30.81
45129;BME280;35512;56.312;101.728;2023-03-18T12:50:38;95606.50;;;4.90;30.72
45129;BME280;35512;56.312;101.728;2023-03-18T12:53:35;95598.28;;;4.83;30.46
45129;BME280;35512;56.312;101.728;2023-03-18T12:56:26;95595.44;;;4.76;30.70
45129;BME280;35512;56.312;101.728;2023-03-18T13:01:46;95590.16;;;4.63;30.72
45129;BME280;35512;56.312;101.728;2023-03-18T13:04:20;95574.97;;;4.51;31.49
45129;BME280;35512;56.312;101.728;2023-03-18T13:07:11;95584.28;;;4.57;31.44
45129;BME280;35512;56.312;101.728;2023-03-18T13:09:48;95559.34;;;4.37;31.43
45129;BME280;35512;56.312;101.728;2023-03-18T13:12:23;95580.13;;;4.44;31.53
45129;BME280;35512;56.312;101.728;2023-03-18T13:15:10;95578.91;;;4.42;31.20
45129;BME280;35512;56.312;101.728;2023-03-18T13:17:44;95565.25;;;4.31;31.60
45129;BME280;35512;56.312;101.728;2023-03-18T13:20:23;95575.38;;;4.37;31.64
45129;BME280;35512;56.312;101.728;2023-03-18T13:28:48;95569.16;;;4.33;31.90
45129;BME280;35512;56.312;101.728;2023-03-18T13:31:54;95577.28;;;4.37;32.04
45129;BME280;35512;56.312;101.728;2023-03-18T13:37:07;95578.03;;;4.37;32.15
45129;BME280;35512;56.312;101.728;2023-03-18T13:40:13;95577.69;;;4.39;32.21
45129;BME280;35512;56.312;101.728;2023-03-18T13:42:47;95576.34;;;4.45;32.33
45129;BME280;35512;56.312;101.728;2023-03-18T13:47:55;95576.00;;;4.47;32.21
45129;BME280;35512;56.312;101.728;2023-03-18T13:50:35;95578.31;;;4.48;32.46
45129;BME280;35512;56.312;101.728;2023-03-18T14:08:48;95554.59;;;4.47;32.91
45129;BME280;35512;56.312;101.728;2023-03-18T14:13:53;95546.59;;;4.47;33.00
45129;BME280;35512;56.312;101.728;2023-03-18T14:16:49;95549.09;;;4.39;33.02
45129;BME280;35512;56.312;101.728;2023-03-18T14:19:25;95530.00;;;4.25;33.12
45129;BME280;35512;56.312;101.728;2023-03-18T14:22:32;95550.19;;;4.38;33.23
45129;BME280;35512;56.312;101.728;2023-03-18T14:27:53;95551.59;;;4.32;33.22
45129;BME280;35512;56.312;101.728;2023-03-18T14:32:59;95547.69;;;4.30;33.43
45129;BME280;35512;56.312;101.728;2023-03-18T14:35:46;95543.72;;;4.23;33.49
45129;BME280;35512;56.312;101.728;2023-03-18T14:41:14;95549.84;;;4.24;33.60
45129;BME280;35512;56.312;101.728;2023-03-18T14:46:36;95524.19;;;4.07;33.74
45129;BME280;35512;56.312;101.728;2023-03-18T14:49:41;95509.88;;;3.99;34.12
45129;BME280;35512;56.312;101.728;2023-03-18T14:52:35;95535.75;;;4.11;34.07
45129;BME280;35512;56.312;101.728;2023-03-18T14:55:25;95536.88;;;4.10;34.10
45129;BME280;35512;56.312;101.728;2023-03-18T14:57:55;95524.09;;;4.03;34.41
45129;BME280;35512;56.312;101.728;2023-03-18T15:00:28;95530.13;;;4.00;34.22
45129;BME280;35512;56.312;101.728;2023-03-18T15:03:08;95512.69;;;3.91;34.00